Time;durP1;ratioP1;P1;durP2;ratioP2;P2;SDS_P1;SDS_P2;PMS_P1;PMS_P2;Temp;Humidity;BMP_temperature;BMP_pressure;BME280_temperature;BME280_humidity;BME280_pressure;Samples;Min_cycle;Max_cycle;Signal;HPM_P1;HPM_P2
2024/04/12 00:00:57;;;;;;;;;;;;;;;9.92;70.52;99318.09;103993;1278;65065;-35
2024/04/12 00:03:24;;;;;;;;;;;;;;;9.90;70.97;99322.06;104148;1274;72443;-35
2024/04/12 00:05:54;;;;;;;;;;;;;;;9.89;71.19;99325.38;104103;1273;62232;-37
2024/04/12 00:08:22;;;;;;;;;;;;;;;9.87;71.30;99326.38;103939;1279;62069;-37
2024/04/12 00:10:49;;;;;;;;;;;;;;;9.86;71.48;99327.55;104206;1276;74573;-36
2024/04/12 00:13:16;;;;;;;;;;;;;;;9.86;71.48;99326.36;104071;1274;66170;-37
2024/04/12 00:15:43;;;;;;;;;;;;;;;9.87;72.07;99330.61;103906;1274;72672;-36
2024/04/12 00:18:11;;;;;;;;;;;;;;;9.87;71.92;99329.32;103908;1278;62085;-37
2024/04/12 00:20:38;;;;;;;;;;;;;;;9.86;71.49;99323.23;103919;1273;62167;-37
2024/04/12 00:23:06;;;;;;;;;;;;;;;9.85;71.46;99323.79;104236;1273;76538;-37
2024/04/12 00:25:33;;;;;;;;;;;;;;;9.82;71.02;99323.77;103919;1273;65967;-34
2024/04/12 00:28:01;;;;;;;;;;;;;;;9.78;71.21;99328.49;104014;1279;72709;-36
2024/04/12 00:30:38;;;;;;;;;;;;;;;9.74;71.22;99325.08;104045;1279;62088;-35
2024/04/12 00:33:11;;;;;;;;;;;;;;;9.70;71.14;99323.37;104073;1274;62101;-39
2024/04/12 00:35:38;;;;;;;;;;;;;;;9.65;71.24;99324.66;104382;1273;73943;-38
2024/04/12 00:38:12;;;;;;;;;;;;;;;9.61;71.28;99323.86;103998;1278;65695;-37
2024/04/12 00:40:45;;;;;;;;;;;;;;;9.57;71.13;99322.48;104034;1274;72746;-39
2024/04/12 00:43:16;;;;;;;;;;;;;;;9.54;71.50;99321.76;104300;1278;62082;-40
2024/04/12 00:45:48;;;;;;;;;;;;;;;9.51;71.78;99323.88;104151;1274;62162;-39
2024/04/12 00:48:15;;;;;;;;;;;;;;;9.47;72.45;99324.09;103927;1274;75863;-40
2024/04/12 00:50:42;;;;;;;;;;;;;;;9.42;72.87;99324.56;104120;1274;66292;-37
2024/04/12 00:53:09;;;;;;;;;;;;;;;9.35;73.94;99324.60;104062;1274;72619;-39
2024/04/12 00:55:39;;;;;;;;;;;;;;;9.23;74.86;99320.22;104227;1279;61970;-37
2024/04/12 00:58:09;;;;;;;;;;;;;;;9.06;75.58;99321.19;104258;1274;62280;-38
2024/04/12 01:00:36;;;;;;;;;;;;;;;8.90;76.40;99326.70;104244;1277;75226;-37
2024/04/12 01:03:08;;;;;;;;;;;;;;;8.79;76.97;99327.62;104260;1274;66362;-39
2024/04/12 01:05:36;;;;;;;;;;;;;;;8.68;77.53;99325.21;104385;1274;72611;-37
2024/04/12 01:08:06;;;;;;;;;;;;;;;8.60;78.14;99322.60;104354;1279;62123;-37
2024/04/12 01:10:36;;;;;;;;;;;;;;;8.52;78.65;99329.30;104177;1274;62190;-37
2024/04/12 01:13:04;;;;;;;;;;;;;;;8.46;79.13;99325.85;104246;1274;75549;-40
2024/04/12 01:15:37;;;;;;;;;;;;;;;8.38;79.66;99328.34;104052;1279;66066;-38
2024/04/12 01:18:10;;;;;;;;;;;;;;;8.29;80.11;99329.27;103984;1274;72977;-38
2024/04/12 01:20:39;;;;;;;;;;;;;;;8.23;80.56;99324.29;104244;1279;61998;-39
2024/04/12 01:23:07;;;;;;;;;;;;;;;8.14;80.87;99324.95;104060;1274;62125;-39
2024/04/12 01:25:34;;;;;;;;;;;;;;;8.07;81.35;99321.56;104175;1274;75526;-40
2024/04/12 01:28:03;;;;;;;;;;;;;;;8.01;81.60;99318.58;104219;1274;66296;-38
2024/04/12 01:30:31;;;;;;;;;;;;;;;7.98;82.15;99322.12;104286;1273;72564;-37
2024/04/12 01:32:58;;;;;;;;;;;;;;;7.96;82.47;99321.70;103990;1279;62110;-37
2024/04/12 01:35:26;;;;;;;;;;;;;;;7.94;82.99;99319.96;103907;1274;62207;-37
2024/04/12 01:37:57;;;;;;;;;;;;;;;7.90;83.17;99319.42;104106;1273;75519;-35
2024/04/12 01:40:25;;;;;;;;;;;;;;;7.85;83.26;99320.93;104164;1278;66775;-36
2024/04/12 01:42:53;;;;;;;;;;;;;;;7.80;83.55;99316.52;103994;1274;72020;-36
2024/04/12 01:45:26;;;;;;;;;;;;;;;7.73;83.74;99318.85;104176;1278;62085;-37
2024/04/12 01:47:55;;;;;;;;;;;;;;;7.66;84.04;99319.89;104169;1273;62305;-36
2024/04/12 01:50:23;;;;;;;;;;;;;;;7.60;84.38;99321.58;103970;1274;76811;-36
2024/04/12 01:52:53;;;;;;;;;;;;;;;7.54;84.60;99319.50;103872;1273;66254;-35
2024/04/12 01:55:21;;;;;;;;;;;;;;;7.48;84.99;99317.21;103886;1274;72636;-37
2024/04/12 01:57:51;;;;;;;;;;;;;;;7.44;85.38;99319.96;103853;1279;62108;-37
2024/04/12 02:00:20;;;;;;;;;;;;;;;7.39;85.81;99319.65;104325;1279;62116;-37
2024/04/12 02:02:51;;;;;;;;;;;;;;;7.35;86.08;99319.14;104108;1273;73951;-37
2024/04/12 02:05:28;;;;;;;;;;;;;;;7.31;86.43;99316.02;103955;1273;66256;-35
2024/04/12 02:07:56;;;;;;;;;;;;;;;7.27;86.54;99319.88;103994;1274;72377;-37
2024/04/12 02:10:23;;;;;;;;;;;;;;;7.19;86.90;99322.34;104209;1279;62171;-37
2024/04/12 02:12:53;;;;;;;;;;;;;;;7.10;87.04;99323.71;104024;1273;62202;-36
2024/04/12 02:15:25;;;;;;;;;;;;;;;7.01;87.25;99323.63;104163;1273;75444;-36
2024/04/12 02:17:58;;;;;;;;;;;;;;;6.96;87.52;99324.69;104127;1274;65079;-37
2024/04/12 02:20:35;;;;;;;;;;;;;;;6.91;87.93;99328.80;103997;1274;72675;-36
2024/04/12 02:23:05;;;;;;;;;;;;;;;6.87;88.41;99324.28;104049;1279;62088;-36
2024/04/12 02:25:33;;;;;;;;;;;;;;;6.84;88.62;99320.97;104083;1279;61996;-36
2024/04/12 02:28:07;;;;;;;;;;;;;;;6.79;88.74;99318.31;104158;1278;75523;-35
2024/04/12 02:30:54;;;;;;;;;;;;;;;6.74;89.00;99320.02;104220;1278;63849;-33
2024/04/12 02:33:24;;;;;;;;;;;;;;;6.63;89.06;99313.70;103984;1274;72774;-39
2024/04/12 02:35:59;;;;;;;;;;;;;;;6.57;89.48;99310.70;104045;1274;62238;-38
2024/04/12 02:38:26;;;;;;;;;;;;;;;6.53;89.83;99309.23;104148;1277;61993;-34
2024/04/12 02:40:53;;;;;;;;;;;;;;;6.50;90.18;99310.86;104082;1274;75942;-38
2024/04/12 02:43:24;;;;;;;;;;;;;;;6.52;90.35;99314.36;104046;1279;65977;-38
2024/04/12 02:45:52;;;;;;;;;;;;;;;6.51;90.57;99315.23;104405;1274;73468;-38
2024/04/12 02:48:22;;;;;;;;;;;;;;;6.49;90.74;99317.48;104100;1273;62135;-37
2024/04/12 02:50:53;;;;;;;;;;;;;;;6.47;90.73;99317.55;104365;1274;62136;-37
2024/04/12 02:53:24;;;;;;;;;;;;;;;6.44;90.88;99314.54;104131;1274;75456;-37
2024/04/12 02:56:00;;;;;;;;;;;;;;;6.42;91.21;99316.46;104172;1277;64825;-36
2024/04/12 02:58:40;;;;;;;;;;;;;;;6.40;91.38;99319.67;104060;1274;72433;-38
2024/04/12 03:01:13;;;;;;;;;;;;;;;6.39;91.49;99320.28;104286;1280;62709;-36
2024/04/12 03:03:45;;;;;;;;;;;;;;;6.35;91.52;99319.23;104065;1274;62095;-36
2024/04/12 03:06:12;;;;;;;;;;;;;;;6.33;91.80;99321.16;104075;1274;76499;-36
2024/04/12 03:08:40;;;;;;;;;;;;;;;6.32;91.82;99322.15;104055;1278;66294;-35
2024/04/12 03:11:22;;;;;;;;;;;;;;;6.32;91.99;99320.69;104038;1280;72347;-36
2024/04/12 03:13:51;;;;;;;;;;;;;;;6.30;91.99;99323.46;104070;1273;62181;-35
2024/04/12 03:16:18;;;;;;;;;;;;;;;6.24;92.10;99325.16;104118;1273;62197;-35
2024/04/12 03:18:46;;;;;;;;;;;;;;;6.21;92.64;99330.56;103909;1279;75507;-37
2024/04/12 03:21:26;;;;;;;;;;;;;;;6.19;92.58;99325.13;104191;1274;65795;-37
2024/04/12 03:23:54;;;;;;;;;;;;;;;6.15;92.71;99329.77;104163;1274;71963;-36
2024/04/12 03:26:21;;;;;;;;;;;;;;;6.13;92.68;99333.88;104039;1279;62062;-36
2024/04/12 03:28:49;;;;;;;;;;;;;;;6.10;92.63;99337.14;103902;1274;62085;-36
2024/04/12 03:31:17;;;;;;;;;;;;;;;6.05;92.65;99342.20;103909;1276;75406;-36
2024/04/12 03:33:44;;;;;;;;;;;;;;;6.03;92.77;99347.83;103926;1277;65939;-36
2024/04/12 03:41:57;;;;;;;;;;;;;;;5.90;92.94;99351.59;104030;1274;62088;-37
2024/04/12 03:44:30;;;;;;;;;;;;;;;5.88;92.91;99351.30;104015;1274;75051;-37
2024/04/12 03:47:00;;;;;;;;;;;;;;;5.86;93.00;99350.31;104230;1278;66138;-38
2024/04/12 03:49:31;;;;;;;;;;;;;;;5.83;93.07;99350.04;103938;1273;72476;-38
2024/04/12 03:51:58;;;;;;;;;;;;;;;5.80;93.20;99352.98;104171;1274;62080;-36
2024/04/12 03:54:25;;;;;;;;;;;;;;;5.77;93.43;99349.30;103890;1274;62170;-37
2024/04/12 03:56:53;;;;;;;;;;;;;;;5.77;93.46;99350.09;104210;1274;75400;-37
2024/04/12 03:59:28;;;;;;;;;;;;;;;5.74;93.47;99350.95;103979;1279;66095;-36
2024/04/12 04:01:56;;;;;;;;;;;;;;;5.72;93.70;99352.45;103909;1274;72770;-36
2024/04/12 04:04:28;;;;;;;;;;;;;;;5.68;93.75;99354.17;103978;1279;62184;-35
2024/04/12 04:06:55;;;;;;;;;;;;;;;5.66;93.93;99353.91;104128;1279;62283;-35
2024/04/12 04:09:22;;;;;;;;;;;;;;;5.65;93.84;99354.78;103921;1274;74471;-38
2024/04/12 04:11:52;;;;;;;;;;;;;;;5.62;93.96;99356.51;103945;1274;64416;-36
2024/04/12 04:14:20;;;;;;;;;;;;;;;5.61;94.41;99354.35;103990;1279;72405;-37
2024/04/12 04:16:51;;;;;;;;;;;;;;;5.65;94.82;99356.95;104141;1274;62015;-37
2024/04/12 04:19:18;;;;;;;;;;;;;;;5.71;95.12;99357.45;103911;1278;62116;-38
2024/04/12 04:21:46;;;;;;;;;;;;;;;5.80;95.16;99354.69;104115;1275;75434;-37
2024/04/12 04:24:14;;;;;;;;;;;;;;;5.87;95.15;99353.56;104151;1278;65824;-37
2024/04/12 04:26:42;;;;;;;;;;;;;;;5.91;95.25;99355.06;104190;1274;72465;-37
2024/04/12 04:29:09;;;;;;;;;;;;;;;5.95;95.39;99353.73;103999;1277;62168;-36
2024/04/12 04:31:43;;;;;;;;;;;;;;;6.00;95.32;99351.77;103926;1274;62193;-37
2024/04/12 04:34:12;;;;;;;;;;;;;;;6.04;95.34;99350.56;103946;1277;75160;-36
2024/04/12 04:36:40;;;;;;;;;;;;;;;6.07;95.44;99347.60;104030;1273;65756;-37
2024/04/12 04:39:07;;;;;;;;;;;;;;;6.14;95.45;99345.38;104121;1274;72466;-36
2024/04/12 04:41:34;;;;;;;;;;;;;;;6.21;95.46;99345.34;104007;1279;62085;-37
2024/04/12 04:44:01;;;;;;;;;;;;;;;6.28;95.40;99353.06;104146;1274;62110;-37
2024/04/12 04:46:29;;;;;;;;;;;;;;;6.35;95.44;99355.64;104035;1278;76413;-35
2024/04/12 04:48:56;;;;;;;;;;;;;;;6.43;95.36;99355.41;104070;1278;66078;-37
2024/04/12 04:51:23;;;;;;;;;;;;;;;6.50;95.31;99354.88;103912;1274;72564;-36
2024/04/12 04:53:53;;;;;;;;;;;;;;;6.58;95.37;99357.29;104428;1278;62123;-36
2024/04/12 04:56:30;;;;;;;;;;;;;;;6.67;95.05;99355.91;104040;1274;62213;-36
2024/04/12 04:58:57;;;;;;;;;;;;;;;6.77;94.92;99355.29;104436;1273;75501;-34
2024/04/12 05:01:25;;;;;;;;;;;;;;;6.88;94.47;99354.23;103995;1279;65114;-36
2024/04/12 05:03:52;;;;;;;;;;;;;;;7.00;94.19;99355.36;103768;1274;72414;-36
2024/04/12 05:06:24;;;;;;;;;;;;;;;7.12;93.88;99353.38;104501;1274;62205;-36
2024/04/12 05:08:52;;;;;;;;;;;;;;;7.24;93.48;99352.23;104286;1276;62036;-35
2024/04/12 05:11:20;;;;;;;;;;;;;;;7.34;93.20;99355.05;104085;1273;75571;-36
2024/04/12 05:13:55;;;;;;;;;;;;;;;7.45;93.01;99358.16;103902;1273;66072;-38
2024/04/12 05:16:23;;;;;;;;;;;;;;;7.56;92.64;99353.02;104248;1274;72445;-37
2024/04/12 05:18:52;;;;;;;;;;;;;;;7.69;92.18;99350.67;104071;1276;62101;-37
2024/04/12 05:21:20;;;;;;;;;;;;;;;7.81;91.57;99356.45;104123;1274;62114;-36
2024/04/12 05:23:51;;;;;;;;;;;;;;;7.93;90.64;99352.40;104022;1277;75445;-36
2024/04/12 05:26:20;;;;;;;;;;;;;;;8.06;90.39;99351.75;104173;1274;65926;-37
2024/04/12 05:28:48;;;;;;;;;;;;;;;8.19;89.81;99355.08;103910;1274;72664;-35
2024/04/12 05:31:15;;;;;;;;;;;;;;;8.33;88.72;99350.10;104244;1277;62370;-35
2024/04/12 05:33:45;;;;;;;;;;;;;;;8.48;88.12;99356.48;104155;1274;62117;-36
2024/04/12 05:36:14;;;;;;;;;;;;;;;8.63;87.40;99356.66;104520;1276;75610;-36
2024/04/12 05:38:41;;;;;;;;;;;;;;;8.77;86.13;99355.96;104091;1277;67134;-37
2024/04/12 05:41:09;;;;;;;;;;;;;;;8.92;85.06;99359.11;104003;1274;73623;-36
2024/04/12 05:43:38;;;;;;;;;;;;;;;9.05;83.70;99357.00;103866;1277;62085;-36
2024/04/12 05:46:05;;;;;;;;;;;;;;;9.19;82.64;99358.98;104074;1276;62103;-36
2024/04/12 05:48:36;;;;;;;;;;;;;;;9.32;81.36;99364.09;103740;1277;76347;-36
2024/04/12 05:51:04;;;;;;;;;;;;;;;9.46;78.14;99368.42;103858;1278;65206;-36
2024/04/12 05:53:33;;;;;;;;;;;;;;;9.64;75.74;99368.36;103880;1274;73724;-35
2024/04/12 05:58:47;;;;;;;;;;;;;;;9.99;69.96;99360.58;104134;1274;62277;-36
2024/04/12 06:01:15;;;;;;;;;;;;;;;10.12;67.62;99364.22;103878;1280;76374;-36
2024/04/12 06:03:53;;;;;;;;;;;;;;;10.24;65.85;99362.30;104018;1277;65076;-37
2024/04/12 06:06:22;;;;;;;;;;;;;;;10.36;64.70;99365.23;103974;1277;72633;-34
2024/04/12 06:08:49;;;;;;;;;;;;;;;10.46;62.43;99366.28;104084;1279;62203;-35
2024/04/12 06:11:17;;;;;;;;;;;;;;;10.59;62.24;99362.09;103778;1274;62084;-36
2024/04/12 06:13:48;;;;;;;;;;;;;;;10.70;61.86;99364.20;103769;1278;74577;-35
2024/04/12 06:16:17;;;;;;;;;;;;;;;10.81;61.59;99366.31;103950;1278;65094;-37
2024/04/12 06:18:45;;;;;;;;;;;;;;;10.91;60.88;99369.65;106245;1273;73673;-32
2024/04/12 06:21:12;;;;;;;;;;;;;;;11.01;60.27;99371.21;104366;1274;62101;-34
2024/04/12 06:23:39;;;;;;;;;;;;;;;11.10;59.95;99368.00;104157;1274;62081;-38
2024/04/12 06:26:06;;;;;;;;;;;;;;;11.17;59.69;99363.57;103967;1279;76398;-37
2024/04/12 06:28:36;;;;;;;;;;;;;;;11.24;60.01;99367.58;103830;1274;67372;-36
2024/04/12 06:31:05;;;;;;;;;;;;;;;11.32;60.33;99369.39;104075;1274;72466;-37
2024/04/12 06:33:33;;;;;;;;;;;;;;;11.40;60.00;99367.39;104090;1276;62304;-37
2024/04/12 06:36:04;;;;;;;;;;;;;;;11.47;60.08;99366.98;103756;1274;62203;-38
2024/04/12 06:38:33;;;;;;;;;;;;;;;11.54;60.41;99364.33;104000;1276;75521;-36
2024/04/12 06:41:02;;;;;;;;;;;;;;;11.59;60.26;99364.94;103999;1277;67258;-37
2024/04/12 06:43:33;;;;;;;;;;;;;;;11.65;59.96;99361.79;104174;1274;71797;-37
2024/04/12 06:46:13;;;;;;;;;;;;;;;11.73;60.08;99364.80;103907;1277;62523;-35
2024/04/12 06:48:44;;;;;;;;;;;;;;;11.81;60.60;99365.73;103900;1277;62052;-40
2024/04/12 06:51:16;;;;;;;;;;;;;;;11.89;60.08;99352.38;104184;1276;75653;-37
2024/04/12 06:53:46;;;;;;;;;;;;;;;11.97;59.49;99363.34;103875;1274;66321;-35
2024/04/12 06:56:17;;;;;;;;;;;;;;;12.05;59.45;99359.44;107858;1273;73663;-39
2024/04/12 06:58:46;;;;;;;;;;;;;;;12.15;59.76;99364.23;104868;1273;62117;-39
2024/04/12 07:01:14;;;;;;;;;;;;;;;12.28;59.21;99364.89;103976;1279;63157;-37
2024/04/12 07:03:48;;;;;;;;;;;;;;;12.37;58.88;99363.80;103822;1278;75509;-39
2024/04/12 07:06:16;;;;;;;;;;;;;;;12.48;58.55;99363.39;103879;1280;65387;-39
2024/04/12 07:08:49;;;;;;;;;;;;;;;12.59;58.10;99359.14;103907;1273;73823;-38
2024/04/12 07:11:24;;;;;;;;;;;;;;;12.70;57.33;99358.69;104416;1277;62232;-34
2024/04/12 07:17:30;;;;;;;;;;;;;;;13.00;56.76;99369.92;103664;1279;75996;-39
2024/04/12 07:19:59;;;;;;;;;;;;;;;13.10;55.68;99365.48;104473;1276;66578;-38
2024/04/12 07:22:26;;;;;;;;;;;;;;;13.19;55.01;99361.09;107760;1274;72488;-40
2024/04/12 07:24:54;;;;;;;;;;;;;;;13.27;54.93;99361.94;107628;1273;59871;-39
2024/04/12 07:27:22;;;;;;;;;;;;;;;13.35;54.84;99357.59;107711;1273;60056;-40
2024/04/12 07:29:49;;;;;;;;;;;;;;;13.40;54.52;99358.00;104402;1279;74316;-38
2024/04/12 07:32:17;;;;;;;;;;;;;;;13.44;54.41;99358.36;103779;1274;67021;-40
2024/04/12 07:34:49;;;;;;;;;;;;;;;13.48;54.35;99357.81;104744;1277;73660;-41
2024/04/12 07:37:26;;;;;;;;;;;;;;;13.52;53.98;99355.42;103763;1276;62187;-38
2024/04/12 07:40:15;;;;;;;;;;;;;;;13.54;53.83;99354.82;104077;1274;62187;-41
2024/04/12 07:42:45;;;;;;;;;;;;;;;13.58;54.31;99351.14;104080;1276;75244;-40
2024/04/12 07:45:16;;;;;;;;;;;;;;;13.66;54.20;99347.60;105997;1276;66343;-39
2024/04/12 07:47:52;;;;;;;;;;;;;;;13.75;54.56;99347.61;104003;1276;73367;-38
2024/04/12 07:50:21;;;;;;;;;;;;;;;13.86;54.31;99339.46;103702;1274;62146;-38
2024/04/12 07:52:52;;;;;;;;;;;;;;;13.94;53.73;99335.91;103827;1273;62091;-36
2024/04/12 07:55:24;;;;;;;;;;;;;;;14.02;54.11;99340.07;103940;1275;76506;-38
2024/04/12 07:57:54;;;;;;;;;;;;;;;14.13;53.82;99338.95;103918;1279;65077;-37
2024/04/12 08:00:35;;;;;;;;;;;;;;;14.26;53.20;99335.14;104192;1277;73280;-38
2024/04/12 08:03:06;;;;;;;;;;;;;;;14.42;52.99;99335.05;103760;1274;62068;-38
2024/04/12 08:05:48;;;;;;;;;;;;;;;14.57;52.49;99325.14;103980;1274;62186;-40
2024/04/12 08:08:16;;;;;;;;;;;;;;;14.72;51.90;99324.74;104120;1276;75261;-39
2024/04/12 08:10:42;;;;;;;;;;;;;;;14.85;51.80;99322.33;103931;1274;66439;-39
2024/04/12 08:13:10;;;;;;;;;;;;;;;15.02;51.13;99329.27;103742;1274;73163;-38
2024/04/12 08:15:41;;;;;;;;;;;;;;;15.16;50.43;99316.66;104228;1287;62178;-39
2024/04/12 08:18:08;;;;;;;;;;;;;;;15.26;50.11;99320.48;104134;1274;61998;-39
2024/04/12 08:20:39;;;;;;;;;;;;;;;15.28;49.74;99322.07;104263;1276;75594;-40
2024/04/12 08:23:06;;;;;;;;;;;;;;;15.26;50.13;99322.04;104183;1277;67096;-38
2024/04/12 08:25:36;;;;;;;;;;;;;;;15.33;50.39;99317.36;104042;1280;74203;-38
2024/04/12 08:28:06;;;;;;;;;;;;;;;15.43;50.18;99319.95;104069;1279;62049;-39
2024/04/12 08:30:51;;;;;;;;;;;;;;;15.52;50.10;99323.90;104141;1274;62152;-42
2024/04/12 08:33:24;;;;;;;;;;;;;;;15.58;49.20;99321.83;104185;1279;75453;-42
2024/04/12 08:35:55;;;;;;;;;;;;;;;15.61;49.42;99319.52;104223;1274;67587;-40
2024/04/12 08:38:23;;;;;;;;;;;;;;;15.68;49.31;99322.38;104061;1277;72449;-41
2024/04/12 08:40:52;;;;;;;;;;;;;;;15.72;49.09;99319.03;104424;1280;62008;-41
2024/04/12 08:43:19;;;;;;;;;;;;;;;15.78;49.52;99317.98;104064;1279;62193;-38
2024/04/12 08:45:47;;;;;;;;;;;;;;;15.90;49.23;99313.52;103947;1279;76251;-42
2024/04/12 08:48:15;;;;;;;;;;;;;;;16.01;48.72;99313.30;103994;1279;66496;-38
2024/04/12 08:50:48;;;;;;;;;;;;;;;16.12;48.46;99313.63;104074;1274;72734;-41
2024/04/12 08:53:17;;;;;;;;;;;;;;;16.21;48.37;99306.84;104236;1278;62542;-41
2024/04/12 08:55:44;;;;;;;;;;;;;;;16.31;47.87;99300.06;104510;1274;62139;-40
2024/04/12 08:58:20;;;;;;;;;;;;;;;16.39;47.55;99299.71;104226;1278;76446;-38
2024/04/12 09:00:49;;;;;;;;;;;;;;;16.49;47.38;99289.34;103823;1279;66206;-39
2024/04/12 09:03:25;;;;;;;;;;;;;;;16.57;47.75;99291.11;103851;1274;72498;-40
2024/04/12 09:05:53;;;;;;;;;;;;;;;16.70;46.79;99288.98;103950;1279;61998;-38
2024/04/12 09:08:22;;;;;;;;;;;;;;;16.69;46.61;99285.16;103985;1274;62092;-40
2024/04/12 09:10:52;;;;;;;;;;;;;;;16.68;46.40;99279.92;103941;1276;76525;-39
2024/04/12 09:13:21;;;;;;;;;;;;;;;16.67;46.37;99281.09;103839;1279;67474;-40
2024/04/12 09:15:50;;;;;;;;;;;;;;;16.64;46.42;99276.20;104271;1274;72781;-41
2024/04/12 09:18:26;;;;;;;;;;;;;;;16.65;45.81;99273.66;103928;1278;62105;-40
2024/04/12 09:21:01;;;;;;;;;;;;;;;16.66;45.97;99268.00;104076;1279;62021;-37
2024/04/12 09:23:33;;;;;;;;;;;;;;;16.66;45.69;99260.09;103780;1277;76429;-42
2024/04/12 09:26:21;;;;;;;;;;;;;;;16.72;46.31;99264.15;104282;1279;66598;-39
2024/04/12 09:28:48;;;;;;;;;;;;;;;16.84;46.52;99254.83;105988;1276;73824;-39
2024/04/12 09:34:22;;;;;;;;;;;;;;;16.96;45.81;99252.64;103836;1274;62210;-39
2024/04/12 09:36:56;;;;;;;;;;;;;;;16.89;45.94;99247.21;104026;1279;75566;-40
2024/04/12 09:39:23;;;;;;;;;;;;;;;16.88;45.14;99250.63;103770;1274;66307;-40
2024/04/12 09:42:02;;;;;;;;;;;;;;;16.83;45.25;99249.11;104076;1279;73577;-36
2024/04/12 09:44:48;;;;;;;;;;;;;;;16.85;45.02;99242.01;103957;1274;62202;-43
2024/04/12 10:37:28;;;;;;;;;;;;;;;17.23;44.84;99188.20;103736;1287;73370;-44
2024/04/12 10:39:56;;;;;;;;;;;;;;;17.34;45.08;99186.48;104076;1279;62094;-45
2024/04/12 10:42:26;;;;;;;;;;;;;;;17.46;44.66;99179.96;103904;1279;62136;-44
2024/04/12 10:44:56;;;;;;;;;;;;;;;17.53;44.58;99175.18;104083;1279;76247;-44
2024/04/12 10:47:27;;;;;;;;;;;;;;;17.61;44.28;99175.85;104297;1279;66948;-43
2024/04/12 10:49:58;;;;;;;;;;;;;;;17.67;43.93;99172.13;107027;1276;73388;-43
2024/04/12 10:52:31;;;;;;;;;;;;;;;17.74;44.03;99164.97;105630;1273;62180;-44
2024/04/12 10:54:58;;;;;;;;;;;;;;;17.91;43.44;99163.20;104430;1276;62076;-43
2024/04/12 10:57:29;;;;;;;;;;;;;;;18.10;42.69;99163.15;104032;1274;76425;-43
2024/04/12 11:00:00;;;;;;;;;;;;;;;18.34;42.65;99166.09;104269;1274;67029;-43
2024/04/12 11:02:31;;;;;;;;;;;;;;;18.71;41.97;99164.42;104164;1280;72618;-42
2024/04/12 11:07:46;;;;;;;;;;;;;;;19.57;41.00;99163.45;104095;1274;62114;-42
2024/04/12 11:13:10;;;;;;;;;;;;;;;20.27;39.57;99151.52;104396;1279;66668;-40
2024/04/12 11:32:06;;;;;;;;;;;;;;;22.43;35.42;99143.13;103755;1287;62104;-44
2024/04/12 11:34:33;;;;;;;;;;;;;;;22.71;35.27;99136.30;103857;1279;62207;-45
2024/04/12 11:37:08;;;;;;;;;;;;;;;23.19;34.94;99127.31;104022;1279;76282;-44
2024/04/12 11:39:36;;;;;;;;;;;;;;;23.70;34.15;99123.40;104018;1278;66394;-45
2024/04/12 11:42:03;;;;;;;;;;;;;;;23.98;33.09;99125.80;103733;1277;73673;-44
2024/04/12 11:44:33;;;;;;;;;;;;;;;24.11;32.45;99122.98;103775;1279;62151;-43
2024/04/12 11:47:04;;;;;;;;;;;;;;;24.33;32.09;99119.09;104202;1276;62139;-44
2024/04/12 11:49:41;;;;;;;;;;;;;;;24.53;32.11;99113.45;104040;1278;77686;-43
2024/04/12 11:52:27;;;;;;;;;;;;;;;24.84;31.91;99112.16;103888;1277;67353;-44
2024/04/12 11:54:56;;;;;;;;;;;;;;;25.08;31.66;99109.91;103774;1273;73743;-43
2024/04/12 11:57:26;;;;;;;;;;;;;;;25.35;31.96;99107.58;105259;1276;62766;-42
2024/04/12 11:59:58;;;;;;;;;;;;;;;25.80;31.56;99096.02;105740;1273;62203;-41
2024/04/12 12:02:27;;;;;;;;;;;;;;;26.10;30.42;99097.13;104230;1275;75772;-43
2024/04/12 12:04:56;;;;;;;;;;;;;;;26.30;30.20;99087.91;105061;1279;67445;-42
2024/04/12 12:07:23;;;;;;;;;;;;;;;26.60;30.13;99086.98;103985;1273;73554;-44
2024/04/12 12:09:50;;;;;;;;;;;;;;;26.90;29.81;99084.23;104526;1278;62091;-42
2024/04/12 12:12:22;;;;;;;;;;;;;;;27.08;29.28;99079.84;104301;1275;62092;-45
2024/04/12 12:14:52;;;;;;;;;;;;;;;27.16;29.19;99082.38;104710;1279;76440;-44
2024/04/12 12:17:19;;;;;;;;;;;;;;;27.30;29.03;99079.95;103929;1278;66162;-43
2024/04/12 12:19:50;;;;;;;;;;;;;;;27.49;28.46;99079.89;104357;1274;73445;-43
2024/04/12 12:22:18;;;;;;;;;;;;;;;27.58;27.93;99073.09;103925;1279;62121;-43
2024/04/12 12:24:48;;;;;;;;;;;;;;;27.63;28.48;99070.95;104332;1273;62088;-51
2024/04/12 12:27:19;;;;;;;;;;;;;;;27.74;27.47;99071.45;103899;1284;76287;-43
2024/04/12 12:29:49;;;;;;;;;;;;;;;27.50;27.74;99064.27;104577;1278;67046;-42
2024/04/12 12:32:16;;;;;;;;;;;;;;;27.34;28.03;99063.91;104032;1280;73795;-42
2024/04/12 12:34:46;;;;;;;;;;;;;;;27.29;28.49;99057.86;104543;1279;62166;-47
2024/04/12 12:37:14;;;;;;;;;;;;;;;27.45;28.57;99055.25;104077;1274;62276;-43
2024/04/12 12:39:41;;;;;;;;;;;;;;;27.73;28.37;99052.95;103996;1273;76401;-47
2024/04/12 12:42:09;;;;;;;;;;;;;;;27.91;28.12;99055.41;104064;1278;66945;-46
2024/04/12 12:44:37;;;;;;;;;;;;;;;27.71;28.01;99052.77;104322;1273;73610;-41
2024/04/12 12:47:07;;;;;;;;;;;;;;;27.42;28.23;99052.53;104311;1274;62008;-41
2024/04/12 12:49:46;;;;;;;;;;;;;;;27.33;28.63;99052.41;104398;1276;62216;-42
2024/04/12 12:52:14;;;;;;;;;;;;;;;27.51;28.41;99047.61;103892;1273;76669;-45
2024/04/12 12:54:42;;;;;;;;;;;;;;;27.57;28.52;99050.43;104113;1274;65979;-37
2024/04/12 12:57:09;;;;;;;;;;;;;;;27.77;28.31;99045.14;104024;1273;70897;-40
2024/04/12 12:59:46;;;;;;;;;;;;;;;28.02;28.28;99049.95;104289;1274;62186;-41
2024/04/12 13:02:17;;;;;;;;;;;;;;;28.25;27.63;99040.71;104312;1276;62139;-37
2024/04/12 13:04:46;;;;;;;;;;;;;;;28.20;27.77;99035.79;104551;1278;76548;-36
2024/04/12 13:07:16;;;;;;;;;;;;;;;27.99;27.92;99033.93;104264;1277;67455;-37
2024/04/12 13:09:43;;;;;;;;;;;;;;;27.77;28.38;99038.77;104681;1274;73495;-39
2024/04/12 13:12:10;;;;;;;;;;;;;;;27.64;28.18;99037.22;104126;1274;62024;-38
2024/04/12 13:14:39;;;;;;;;;;;;;;;27.19;28.70;99035.98;104138;1276;62082;-37
2024/04/12 13:17:12;;;;;;;;;;;;;;;26.86;29.23;99035.10;104051;1287;73740;-38
2024/04/12 13:19:41;;;;;;;;;;;;;;;26.91;29.20;99028.23;104678;1273;67089;-39
2024/04/12 13:22:11;;;;;;;;;;;;;;;27.10;29.30;99024.18;104283;1278;73698;-39
2024/04/12 13:24:38;;;;;;;;;;;;;;;27.14;28.87;99027.27;103983;1274;62120;-38
2024/04/12 13:27:07;;;;;;;;;;;;;;;26.83;29.13;99027.75;103958;1279;62140;-38
2024/04/12 13:29:36;;;;;;;;;;;;;;;26.66;29.58;99022.79;103944;1276;76262;-39
2024/04/12 13:32:09;;;;;;;;;;;;;;;26.66;29.79;99020.58;104287;1279;66869;-39
2024/04/12 13:34:37;;;;;;;;;;;;;;;26.56;29.79;99020.52;104261;1274;72465;-37
2024/04/12 13:37:06;;;;;;;;;;;;;;;26.27;30.36;99016.39;104081;1274;62084;-37
2024/04/12 13:39:34;;;;;;;;;;;;;;;26.16;30.53;99010.64;104193;1279;62168;-40
2024/04/12 13:42:03;;;;;;;;;;;;;;;26.14;30.84;99005.59;104129;1273;75559;-41
2024/04/12 13:52:48;;;;;;;;;;;;;;;24.79;31.71;99009.90;104390;1273;62290;-40
2024/04/12 13:55:16;;;;;;;;;;;;;;;24.04;33.17;99002.82;104126;1277;75506;-41
2024/04/12 13:57:43;;;;;;;;;;;;;;;23.71;34.02;99002.55;103890;1274;66980;-41
2024/04/12 14:00:13;;;;;;;;;;;;;;;23.44;34.53;99003.25;104070;1274;72727;-39
2024/04/12 14:02:40;;;;;;;;;;;;;;;23.08;35.12;99005.03;104200;1277;62028;-38
2024/04/12 14:05:17;;;;;;;;;;;;;;;22.74;35.67;99005.23;104125;1273;62213;-40
2024/04/12 14:07:49;;;;;;;;;;;;;;;22.38;36.09;99000.27;104272;1273;75426;-37
2024/04/12 14:10:20;;;;;;;;;;;;;;;22.05;36.72;98994.92;104059;1273;67327;-38
2024/04/12 14:12:48;;;;;;;;;;;;;;;21.96;37.21;98994.40;104188;1275;73604;-40
2024/04/12 14:15:16;;;;;;;;;;;;;;;21.99;37.07;98988.74;104021;1277;62105;-39
2024/04/12 14:17:45;;;;;;;;;;;;;;;21.90;37.49;98988.83;104071;1274;62069;-40
2024/04/12 14:20:16;;;;;;;;;;;;;;;21.72;37.82;98981.63;104123;1277;76514;-39
2024/04/12 14:22:43;;;;;;;;;;;;;;;21.59;38.13;98980.06;104220;1277;67214;-39
2024/04/12 14:25:10;;;;;;;;;;;;;;;21.49;38.33;98982.16;104144;1276;73589;-41
2024/04/12 14:27:36;;;;;;;;;;;;;;;21.35;38.76;98979.95;104141;1276;61973;-39
2024/04/12 14:30:05;;;;;;;;;;;;;;;21.26;39.20;98974.42;104325;1277;62097;-42